Portada
METAR-TAF:

METAR-TAF

Aeroports :

L. M. Clayton Airport

Wolf Point, Montana, Estats Units d'Amèrica

latitud: 48-05-40N, longitud: 105-34-38W, altitud: 605 m

Observació

L'informe es va fer fa 1 hora i 4 minuts, a les 22:53 UTC
Vent 13 kt del Est
Temperatura 21°C
Humitat 33%
Pressió 1022 hPa
Visibilitat: 16.1 km
Cel clar

METAR: KOLF 292253Z AUTO 09013KT 10SM CLR 21/04 A3018 RMK AO2 SLP222 T02110044

Hora: 17:57 (23:57 UTC)

Pronòstic

L'informe es va fer fa 37 minuts, a les 23:20 UTC
Pronòstic vàlid del 30 a les 00 UTC al 30 a les 24 UTC
Vent 12 kt del Est/Nord-Est
Visibilitat: 10 km
Escasses núvols a una alçada de 8000 ft
Núvols disperses a una alçada de 11000 ft
A partir de les 30 a les 1600 UTC
Vent 12 kt del Est
Visibilitat: 10 km
Escasses núvols a una alçada de 15000 ft

TAF: KOLF 292320Z 3000/3024 07012KT P6SM FEW080 SCT110 FM301600 10012KT P6SM FEW150

Observacions i pronòstics meteorològics de més de 4000 aeroports (METAR i TAF).

Les estacions disponibles són els punts grocs i vermells al mapa.

Posi el ratolí al punt desitjat per veure el nom de l'estació.

Feu clic per veure les observacions i els pronòstics meteorològics.

Per canviar el mapa: feu clic els botons verds amb una creu de color negre per apropar; al botó verd amb un guió per allunyar la imatge; o en les fletxes verdes per a mapes adjacents.


METAR-TAF: